Time;durP1;ratioP1;P1;durP2;ratioP2;P2;SDS_P1;SDS_P2;PMS_P1;PMS_P2;Temp;Humidity;BMP_temperature;BMP_pressure;BME280_temperature;BME280_humidity;BME280_pressure;Samples;Min_cycle;Max_cycle;Signal;HPM_P1;HPM_P2
2022/10/01 00:00:33;;;;;;;19.13;14.27;;;11.70;83.30;;;10.15;100.00;95798.88;4976586;28;20051;-66
2022/10/01 00:02:59;;;;;;;18.95;13.95;;;11.70;83.20;;;10.14;100.00;95797.25;4992763;28;20452;-66
2022/10/01 00:05:25;;;;;;;17.75;12.77;;;11.60;83.30;;;10.12;100.00;95804.53;4972554;28;20138;-65
2022/10/01 00:07:51;;;;;;;14.52;11.75;;;11.60;83.10;;;10.10;100.00;95804.72;4939023;28;20066;-66
2022/10/01 00:10:17;;;;;;;17.55;11.95;;;11.60;83.00;;;10.08;100.00;95800.66;4987508;28;20085;-65
2022/10/01 00:12:46;;;;;;;12.90;11.25;;;11.60;83.00;;;10.07;100.00;95796.41;4969167;28;20134;-66
2022/10/01 00:15:13;;;;;;;14.27;11.35;;;11.60;82.90;;;10.05;100.00;95798.44;4967773;28;20082;-65
2022/10/01 00:17:40;;;;;;;15.48;11.77;;;11.60;82.70;;;10.00;100.00;95801.66;4968428;28;20121;-65
2022/10/01 00:20:06;;;;;;;13.60;11.43;;;11.50;82.60;;;9.92;100.00;95798.34;5032993;28;20062;-65
2022/10/01 00:22:33;;;;;;;12.98;10.50;;;11.50;82.50;;;9.91;100.00;95807.22;5031828;28;20132;-66
2022/10/01 00:24:59;;;;;;;13.88;10.88;;;11.40;82.50;;;9.86;100.00;95810.44;5037481;28;20508;-66
2022/10/01 00:27:28;;;;;;;13.07;11.68;;;11.40;82.60;;;9.86;100.00;95814.88;5041612;28;20043;-65
2022/10/01 00:29:54;;;;;;;12.95;11.48;;;11.30;82.60;;;9.82;100.00;95803.94;5004632;28;20035;-65
2022/10/01 00:32:20;;;;;;;12.98;10.50;;;11.40;82.80;;;9.83;100.00;95802.94;4962662;28;20051;-65
2022/10/01 00:34:46;;;;;;;11.93;10.68;;;11.40;82.90;;;9.80;100.00;95806.75;4976596;28;20571;-66
2022/10/01 00:37:12;;;;;;;12.93;10.55;;;11.40;83.00;;;9.81;100.00;95803.13;4964203;28;20039;-66
2022/10/01 00:39:37;;;;;;;13.35;12.05;;;11.40;83.10;;;9.84;100.00;95807.19;4962418;28;20132;-65
2022/10/01 00:42:30;;;;;;;13.48;10.77;;;11.40;83.10;;;9.85;100.00;95808.00;4956268;28;20027;-65
2022/10/01 00:44:57;;;;;;;18.80;12.90;;;11.40;83.30;;;9.82;100.00;95803.94;4958694;28;20045;-66
2022/10/01 00:47:35;;;;;;;15.73;14.07;;;11.40;83.30;;;9.82;100.00;95804.75;4961957;28;20039;-66
2022/10/01 00:50:26;;;;;;;19.83;16.42;;;11.40;83.40;;;9.82;100.00;95807.38;4965818;28;20058;-65
2022/10/01 00:52:55;;;;;;;16.88;15.07;;;11.40;83.40;;;9.79;100.00;95805.13;4969922;28;20116;-65
2022/10/01 00:55:38;;;;;;;18.55;16.02;;;11.40;83.40;;;9.80;100.00;95796.25;5038349;28;20039;-66
2022/10/01 00:58:04;;;;;;;21.10;18.23;;;11.40;83.60;;;9.79;100.00;95794.63;5011824;28;20035;-65
2022/10/01 01:00:30;;;;;;;26.52;20.30;;;11.40;83.40;;;9.82;100.00;95794.25;5032162;28;20498;-65
2022/10/01 01:02:55;;;;;;;27.17;20.55;;;11.40;83.30;;;9.82;100.00;95793.44;4944998;28;20073;-66
2022/10/01 01:05:21;;;;;;;28.98;22.02;;;11.40;83.30;;;9.80;100.00;95782.31;4961101;28;20042;-65
2022/10/01 01:07:49;;;;;;;27.13;22.55;;;11.50;83.30;;;9.83;100.00;95787.97;4970611;28;20051;-66
2022/10/01 01:10:27;;;;;;;28.20;23.17;;;11.40;83.40;;;9.83;100.00;95784.53;4967490;28;20046;-65
2022/10/01 01:13:06;;;;;;;28.08;23.63;;;11.40;83.30;;;9.81;100.00;95784.75;4953718;28;20034;-66
2022/10/01 01:15:40;;;;;;;28.88;23.67;;;11.40;83.30;;;9.82;100.00;95781.09;4978951;28;20168;-67
2022/10/01 01:18:17;;;;;;;31.42;24.10;;;11.40;83.40;;;9.80;100.00;95771.81;4948250;28;20522;-66
2022/10/01 01:21:11;;;;;;;29.08;24.42;;;11.30;83.50;;;9.81;100.00;95771.59;5037389;28;20446;-65
2022/10/01 01:24:14;;;;;;;29.95;24.55;;;11.40;83.50;;;9.79;100.00;95757.03;4964050;28;20521;-66
2022/10/01 01:27:05;;;;;;;29.52;24.60;;;11.40;83.40;;;9.78;100.00;95777.25;4961109;28;20042;-65
2022/10/01 01:29:51;;;;;;;26.48;22.73;;;11.40;83.40;;;9.75;100.00;95769.75;4969558;28;20122;-65
2022/10/01 01:32:27;;;;;;;28.23;23.02;;;11.30;83.30;;;9.72;100.00;95778.00;4960525;28;20200;-66
2022/10/01 01:34:53;;;;;;;29.30;22.65;;;11.30;83.40;;;9.68;100.00;95778.56;4949644;28;20062;-65
2022/10/01 01:37:21;;;;;;;27.95;22.77;;;11.20;83.40;;;9.65;100.00;95787.66;4934811;28;20069;-66
2022/10/01 01:39:49;;;;;;;29.60;22.20;;;11.10;83.50;;;9.59;100.00;95780.53;4953277;28;20046;-66
2022/10/01 01:42:26;;;;;;;27.63;22.40;;;11.10;83.80;;;9.52;100.00;95782.31;4966544;28;20023;-65
2022/10/01 01:44:53;;;;;;;25.65;21.30;;;10.90;84.00;;;9.45;100.00;95781.41;4945411;28;20031;-65
2022/10/01 01:47:20;;;;;;;24.60;20.17;;;10.80;84.30;;;9.38;100.00;95780.56;4939462;28;20043;-65
2022/10/01 01:49:49;;;;;;;24.98;20.75;;;10.80;84.60;;;9.32;100.00;95778.69;5013626;28;20058;-65
2022/10/01 01:52:16;;;;;;;23.95;20.77;;;10.70;84.60;;;9.27;100.00;95786.31;4957850;28;20030;-65
2022/10/01 01:54:46;;;;;;;30.92;22.30;;;10.60;84.80;;;9.19;100.00;95782.81;4962473;28;20033;-65
2022/10/01 01:57:12;;;;;;;28.77;22.77;;;10.60;85.00;;;9.12;100.00;95774.06;4959154;28;20038;-65
2022/10/01 01:59:38;;;;;;;26.88;21.35;;;10.50;85.30;;;9.11;100.00;95776.88;4926396;28;20031;-65
2022/10/01 02:02:06;;;;;;;25.38;21.33;;;10.60;85.10;;;9.08;100.00;95775.47;4963677;28;20035;-65
2022/10/01 02:04:39;;;;;;;26.20;21.55;;;10.50;85.10;;;9.04;100.00;95782.06;4965642;28;20116;-66
2022/10/01 02:07:47;;;;;;;26.17;21.25;;;10.50;85.50;;;9.02;100.00;95770.94;4955421;28;20102;-66
2022/10/01 02:10:35;;;;;;;25.00;21.17;;;10.50;85.30;;;8.97;100.00;95768.06;4991867;28;20035;-65
2022/10/01 02:13:24;;;;;;;27.40;21.08;;;10.50;85.20;;;8.96;100.00;95776.94;4963282;28;20035;-65
2022/10/01 02:16:08;;;;;;;28.30;21.33;;;10.50;85.30;;;8.93;100.00;95777.31;4956414;28;20573;-66
2022/10/01 02:18:47;;;;;;;34.85;21.40;;;10.50;85.20;;;8.89;100.00;95770.81;4957583;28;20043;-65
2022/10/01 02:21:38;;;;;;;26.63;21.08;;;10.40;85.20;;;8.85;100.00;95765.16;4959465;28;20031;-67
2022/10/01 02:24:35;;;;;;;25.00;20.90;;;10.40;85.30;;;8.84;100.00;95768.75;4960963;28;20035;-66
2022/10/01 02:27:04;;;;;;;26.60;20.92;;;10.40;85.20;;;8.83;100.00;95766.31;4978373;28;20510;-67
2022/10/01 02:29:30;;;;;;;25.65;19.85;;;10.40;85.10;;;8.80;100.00;95770.09;4943606;28;20043;-66
2022/10/01 02:31:56;;;;;;;25.08;20.15;;;10.40;84.80;;;8.80;100.00;95766.69;5011629;28;20067;-66
2022/10/01 02:34:23;;;;;;;26.88;19.75;;;10.40;84.60;;;8.75;100.00;95763.81;4970029;28;20059;-65
2022/10/01 02:36:49;;;;;;;25.30;19.75;;;10.30;84.50;;;8.76;100.00;95765.44;4929284;28;20377;-66
2022/10/01 02:39:15;;;;;;;24.48;19.35;;;10.30;84.20;;;8.73;100.00;95760.56;4941535;28;20087;-66
2022/10/01 02:41:41;;;;;;;22.92;19.08;;;10.30;84.00;;;8.70;100.00;95750.44;4977694;28;20104;-66
2022/10/01 02:44:17;;;;;;;23.00;19.00;;;10.20;83.90;;;8.69;100.00;95761.94;4971963;28;20138;-66
2022/10/01 02:47:03;;;;;;;24.02;19.27;;;10.20;83.90;;;8.64;100.00;95753.81;4967906;28;20528;-67
2022/10/01 02:49:29;;;;;;;23.50;18.35;;;10.20;83.80;;;8.62;100.00;95747.94;5037944;28;20038;-65
2022/10/01 02:52:25;;;;;;;27.05;21.48;;;10.20;83.90;;;8.62;100.00;95742.69;4923269;28;20427;-66
2022/10/01 02:54:57;;;;;;;26.63;20.63;;;10.10;84.80;;;8.59;100.00;95739.44;4946272;28;20039;-66
2022/10/01 02:57:22;;;;;;;30.15;21.13;;;10.10;85.20;;;8.59;100.00;95743.84;4959831;28;20045;-66
2022/10/01 03:00:06;;;;;;;27.30;20.00;;;10.10;85.20;;;8.56;100.00;95739.81;4945867;28;20027;-65
2022/10/01 03:02:31;;;;;;;23.08;19.13;;;10.10;85.00;;;8.54;100.00;95736.56;5023149;28;20043;-66
2022/10/01 03:04:57;;;;;;;26.60;19.58;;;10.10;84.80;;;8.52;100.00;95733.31;4943570;28;20506;-66
2022/10/01 03:07:24;;;;;;;26.50;20.63;;;10.10;84.70;;;8.50;100.00;95730.06;4956160;28;20085;-66
2022/10/01 03:09:50;;;;;;;28.58;21.42;;;10.10;85.40;;;8.50;100.00;95735.31;4957065;28;20043;-66
2022/10/01 03:12:17;;;;;;;26.02;20.25;;;10.10;85.10;;;8.47;100.00;95745.34;4985890;28;20493;-66
2022/10/01 03:14:44;;;;;;;26.98;20.25;;;9.90;85.50;;;8.41;100.00;95736.41;4985390;28;20035;-66
2022/10/01 03:17:10;;;;;;;26.83;20.63;;;10.00;85.60;;;8.41;100.00;95746.91;4968700;28;20042;-67
2022/10/01 03:19:36;;;;;;;26.27;18.58;;;10.00;85.40;;;8.39;100.00;95743.66;4972201;28;20031;-66
2022/10/01 03:22:02;;;;;;;28.58;18.95;;;9.90;85.00;;;8.39;100.00;95742.84;4940063;28;20101;-66
2022/10/01 03:24:28;;;;;;;25.20;19.35;;;9.90;85.10;;;8.38;100.00;95741.22;4963990;28;20037;-66
2022/10/01 03:26:57;;;;;;;24.88;19.80;;;9.90;85.30;;;8.33;100.00;95741.72;4947652;28;20027;-66
2022/10/01 03:29:24;;;;;;;25.77;19.52;;;9.80;85.60;;;8.29;100.00;95736.03;4976254;28;20035;-66
2022/10/01 03:31:50;;;;;;;26.88;19.45;;;9.70;85.90;;;8.25;100.00;95728.72;4930976;28;20145;-66
2022/10/01 03:34:15;;;;;;;25.70;19.25;;;9.70;86.10;;;8.24;100.00;95729.72;4967687;28;20031;-67
2022/10/01 03:36:41;;;;;;;28.75;20.08;;;9.70;86.00;;;8.20;100.00;95734.53;4945141;28;20478;-66
2022/10/01 03:39:07;;;;;;;26.85;19.38;;;9.70;86.40;;;8.18;100.00;95718.19;4961160;28;20068;-70
2022/10/01 03:41:33;;;;;;;24.90;19.50;;;9.70;86.30;;;8.16;100.00;95717.56;4996467;28;20702;-67
2022/10/01 03:43:58;;;;;;;28.35;19.00;;;9.60;86.40;;;8.12;100.00;95716.28;5012361;28;20486;-69
2022/10/01 03:46:25;;;;;;;25.17;18.60;;;9.60;86.60;;;8.09;100.00;95714.03;4987199;28;20126;-70
2022/10/01 03:48:51;;;;;;;26.15;19.10;;;9.60;86.70;;;8.10;100.00;95722.69;4964731;28;20183;-65
2022/10/01 03:51:19;;;;;;;24.63;18.00;;;9.60;86.60;;;8.10;100.00;95709.59;5031853;28;20046;-67
2022/10/01 03:53:46;;;;;;;23.58;17.83;;;9.60;86.20;;;8.11;100.00;95719.06;5000616;28;20052;-66
2022/10/01 03:56:12;;;;;;;22.23;17.30;;;9.70;85.90;;;8.12;100.00;95724.13;5044918;28;20054;-65
2022/10/01 03:58:38;;;;;;;23.33;17.52;;;9.70;85.70;;;8.12;100.00;95720.69;5007970;28;20039;-66
2022/10/01 04:01:04;;;;;;;26.35;17.70;;;9.70;85.50;;;8.11;100.00;95721.69;5022301;28;20058;-66
2022/10/01 04:03:30;;;;;;;26.02;17.98;;;9.70;85.60;;;8.11;100.00;95725.13;5035218;28;20059;-66
2022/10/01 04:05:56;;;;;;;21.90;17.02;;;9.70;85.70;;;8.11;100.00;95725.13;5019599;28;20121;-66
2022/10/01 04:08:22;;;;;;;25.98;18.38;;;9.70;85.50;;;8.10;100.00;95722.69;4994094;28;20034;-66
2022/10/01 04:10:48;;;;;;;23.15;18.05;;;9.70;85.20;;;8.08;100.00;95717.63;4969956;28;20042;-66
2022/10/01 04:13:14;;;;;;;22.83;17.70;;;9.60;85.60;;;8.07;100.00;95718.63;4986976;28;20043;-66
2022/10/01 04:15:40;;;;;;;22.92;17.15;;;9.60;85.70;;;8.03;100.00;95724.44;4975888;28;20027;-65
2022/10/01 04:18:06;;;;;;;26.00;18.52;;;9.70;85.70;;;8.04;100.00;95726.84;4952426;28;20045;-65
2022/10/01 04:20:33;;;;;;;23.52;17.02;;;9.70;85.50;;;8.05;100.00;95730.28;4986115;28;20115;-65
2022/10/01 04:22:59;;;;;;;22.98;17.38;;;9.60;85.40;;;8.04;100.00;95723.44;4995841;28;20027;-66
2022/10/01 04:25:24;;;;;;;22.85;17.15;;;9.60;85.30;;;8.04;100.00;95728.66;5037320;28;20041;-66
2022/10/01 04:28:01;;;;;;;24.02;17.88;;;9.70;85.40;;;8.03;100.00;95727.03;4953937;28;20038;-67
2022/10/01 04:30:31;;;;;;;19.95;16.00;;;9.70;85.10;;;8.04;100.00;95734.72;5031870;28;20583;-67
2022/10/01 04:32:56;;;;;;;25.17;16.83;;;9.60;85.10;;;8.04;100.00;95733.91;4972656;28;20409;-66
2022/10/01 04:35:22;;;;;;;22.55;16.70;;;9.60;85.30;;;8.03;100.00;95737.53;4988280;28;20121;-67
2022/10/01 04:38:02;;;;;;;21.35;17.17;;;9.60;85.10;;;8.03;100.00;95734.91;5056634;28;20045;-67
2022/10/01 04:40:33;;;;;;;21.50;17.50;;;9.60;85.30;;;7.97;100.00;95734.63;4972987;28;20057;-66
2022/10/01 04:42:59;;;;;;;22.73;17.45;;;9.60;85.70;;;7.96;100.00;95737.44;4973078;28;20371;-67
2022/10/01 04:45:26;;;;;;;26.67;16.52;;;9.50;85.50;;;7.93;100.00;95736.00;4957512;28;20134;-66
2022/10/01 04:47:54;;;;;;;21.05;16.17;;;9.50;85.80;;;7.92;100.00;95737.00;4973054;28;20038;-67
2022/10/01 04:50:20;;;;;;;24.73;17.02;;;9.50;85.80;;;7.89;100.00;95732.09;5021509;28;20504;-67
2022/10/01 04:52:46;;;;;;;25.05;18.30;;;9.40;86.00;;;7.86;100.00;95732.47;5090954;28;20033;-66
2022/10/01 04:55:13;;;;;;;24.75;18.08;;;9.30;86.40;;;7.81;100.00;95729.59;5090956;28;20117;-66
2022/10/01 04:57:38;;;;;;;23.25;17.63;;;9.30;86.80;;;7.79;100.00;95726.34;5041498;28;20031;-67
2022/10/01 05:00:09;;;;;;;24.33;17.08;;;9.30;86.90;;;7.79;100.00;95728.94;5053224;28;20108;-67
2022/10/01 05:02:35;;;;;;;;;;;9.30;86.80;;;7.77;100.00;95733.56;5075911;28;20033;-67
2022/10/01 05:05:04;;;;;;;21.92;15.85;;;9.20;87.00;;;7.74;100.00;95728.69;5044601;28;20309;-67
2022/10/01 05:07:31;;;;;;;20.00;15.23;;;9.20;87.10;;;7.75;100.00;95724.25;5020368;28;20066;-67
2022/10/01 05:09:57;;;;;;;19.42;14.55;;;9.20;87.00;;;7.74;100.00;95718.22;5013252;28;20028;-67
2022/10/01 05:12:24;;;;;;;19.60;14.50;;;9.30;86.90;;;7.77;100.00;95722.28;4949311;28;20031;-66
2022/10/01 05:14:53;;;;;;;16.75;13.90;;;9.30;86.70;;;7.78;100.00;95726.50;4968668;28;20049;-67
2022/10/01 05:17:19;;;;;;;18.95;13.98;;;9.30;86.40;;;7.77;100.00;95719.66;4977758;28;20567;-66
2022/10/01 05:19:45;;;;;;;16.20;13.50;;;9.30;86.40;;;7.78;100.00;95727.31;4984959;28;20039;-66
2022/10/01 05:22:11;;;;;;;15.80;11.98;;;9.30;86.20;;;7.77;100.00;95727.50;4969213;28;20084;-68
2022/10/01 05:24:37;;;;;;;16.63;13.55;;;9.30;86.30;;;7.77;100.00;95733.56;4952026;28;20043;-66
2022/10/01 05:27:03;;;;;;;15.65;12.55;;;9.20;86.30;;;7.77;100.00;95733.56;5011250;28;20039;-67
2022/10/01 05:29:29;;;;;;;17.55;12.75;;;9.30;86.20;;;7.79;100.00;95736.00;5066523;28;20567;-66
2022/10/01 05:31:56;;;;;;;14.93;11.50;;;9.30;86.00;;;7.80;100.00;95735.81;5054582;28;20537;-67
2022/10/01 05:34:22;;;;;;;18.77;12.95;;;9.40;86.00;;;7.82;100.00;95735.63;5036487;28;20041;-65
2022/10/01 05:36:48;;;;;;;16.35;12.80;;;9.30;85.90;;;7.82;100.00;95731.19;5001987;28;20106;-67
2022/10/01 05:39:13;;;;;;;17.90;12.98;;;9.40;86.10;;;7.86;100.00;95735.09;5038696;28;20050;-67
2022/10/01 05:41:39;;;;;;;15.60;11.98;;;9.40;85.90;;;7.90;100.00;95744.19;5087105;28;20059;-66
2022/10/01 05:44:06;;;;;;;15.98;12.57;;;9.50;85.80;;;7.94;100.00;95737.63;5060989;28;20110;-66
2022/10/01 05:46:32;;;;;;;16.80;12.68;;;9.60;85.60;;;7.96;100.00;95743.50;4978625;28;20034;-67
2022/10/01 05:48:58;;;;;;;15.80;13.15;;;9.60;85.40;;;8.04;100.00;95749.63;4933099;28;20043;-66
2022/10/01 05:51:24;;;;;;;17.45;12.25;;;9.60;85.20;;;8.08;100.00;95743.03;4950300;28;20051;-67
2022/10/01 05:53:52;;;;;;;18.27;13.07;;;9.80;85.20;;;8.13;100.00;95741.47;4938526;28;20046;-66
2022/10/01 05:56:18;;;;;;;15.70;12.60;;;9.80;84.90;;;8.15;100.00;95739.50;5062556;28;20048;-66
2022/10/01 05:58:45;;;;;;;15.40;12.60;;;9.90;84.70;;;8.22;100.00;95736.97;5017624;28;20060;-66
2022/10/01 06:01:12;;;;;;;15.50;11.75;;;9.90;84.70;;;8.27;100.00;95745.09;5086469;28;20028;-67
2022/10/01 06:03:37;;;;;;;14.77;11.23;;;9.90;84.60;;;8.31;100.00;95751.56;5020910;28;20029;-67
2022/10/01 06:06:04;;;;;;;14.68;11.63;;;10.10;84.50;;;8.36;100.00;95751.88;5044116;28;20074;-65
2022/10/01 06:08:33;;;;;;;16.58;11.82;;;10.10;84.50;;;8.42;100.00;95752.97;5085556;28;20032;-66
2022/10/01 06:11:00;;;;;;;14.65;11.10;;;10.10;84.10;;;8.45;100.00;95761.25;5026678;28;20031;-67
2022/10/01 06:13:26;;;;;;;15.10;11.95;;;10.20;83.90;;;8.51;100.00;95763.13;4964347;28;20038;-66
2022/10/01 06:15:52;;;;;;;14.10;11.82;;;10.30;83.90;;;8.55;100.00;95759.16;4968546;28;20045;-66
2022/10/01 06:18:17;;;;;;;15.98;13.65;;;10.30;83.80;;;8.63;100.00;95765.31;4981857;28;20088;-66
2022/10/01 06:20:43;;;;;;;17.20;12.85;;;10.40;83.60;;;8.62;100.00;95758.44;5007902;28;20128;-67
2022/10/01 06:23:11;;;;;;;13.88;11.15;;;10.40;83.50;;;8.70;100.00;95766.19;4979796;28;20666;-66
2022/10/01 06:25:38;;;;;;;14.13;11.45;;;10.40;83.40;;;8.71;100.00;95759.94;4965196;28;20023;-67
2022/10/01 06:28:05;;;;;;;13.13;11.52;;;10.40;83.30;;;8.75;100.00;95763.81;4988021;28;20039;-66
2022/10/01 06:30:32;;;;;;;12.55;10.80;;;10.40;83.50;;;8.80;100.00;95756.19;5039675;28;20035;-69
2022/10/01 06:33:22;;;;;;;12.85;10.38;;;10.40;83.30;;;8.84;100.00;95757.47;4965462;28;20705;-69
2022/10/01 06:35:50;;;;;;;13.10;10.75;;;10.50;83.00;;;8.87;100.00;95759.72;4973569;28;20045;-69
2022/10/01 06:38:18;;;;;;;13.95;10.27;;;10.50;82.80;;;8.90;100.00;95762.75;4991790;28;20116;-69
2022/10/01 06:40:52;;;;;;;13.18;10.32;;;10.60;82.80;;;8.95;100.00;95761.38;4999000;28;20437;-69
2022/10/01 06:43:18;;;;;;;13.20;10.57;;;10.60;82.70;;;8.99;100.00;95762.63;5016868;28;20036;-70
2022/10/01 06:45:44;;;;;;;11.25;10.05;;;10.60;82.70;;;9.03;100.00;95756.81;5064237;28;20448;-69
2022/10/01 06:48:13;;;;;;;12.90;10.60;;;10.70;82.60;;;9.10;100.00;95768.22;4966418;28;20035;-69
2022/10/01 06:50:39;;;;;;;17.75;9.88;;;10.80;82.40;;;9.13;100.00;95767.03;4967350;28;20455;-67
2022/10/01 06:53:05;;;;;;;11.73;10.35;;;10.90;82.20;;;9.20;100.00;95765.25;4990267;28;20052;-68
2022/10/01 06:55:33;;;;;;;12.93;10.05;;;11.00;82.30;;;9.25;100.00;95754.19;5068573;28;20150;-69
2022/10/01 06:58:03;;;;;;;13.63;10.13;;;11.00;81.90;;;9.31;100.00;95763.97;5064627;28;20058;-70
2022/10/01 07:00:31;;;;;;;11.77;10.32;;;11.00;81.70;;;9.35;100.00;95757.31;5065179;28;20043;-67
2022/10/01 07:02:57;;;;;;;12.02;10.20;;;11.10;81.70;;;9.38;100.00;95749.88;5046673;28;20038;-68
2022/10/01 07:05:24;;;;;;;12.88;9.40;;;11.10;81.70;;;9.46;100.00;95751.53;5041081;28;20032;-69
2022/10/01 07:07:49;;;;;;;11.95;9.50;;;11.20;81.20;;;9.54;100.00;95754.03;5020150;28;20086;-70
2022/10/01 07:10:19;;;;;;;11.43;8.95;;;11.30;81.00;;;9.60;100.00;95737.53;5046890;28;20187;-70
2022/10/01 07:12:48;;;;;;;11.52;10.20;;;11.40;80.70;;;9.67;100.00;95733.13;5039352;28;20033;-69
2022/10/01 07:15:14;;;;;;;12.80;9.93;;;11.50;80.80;;;9.75;100.00;95730.34;5082687;28;20416;-69
2022/10/01 07:17:50;;;;;;;12.82;10.63;;;11.60;80.50;;;9.86;100.00;95736.06;4972579;28;20043;-68
2022/10/01 07:20:17;;;;;;;9.73;8.75;;;11.70;80.50;;;9.89;100.00;95730.41;5025936;28;20041;-68
2022/10/01 07:22:43;;;;;;;9.70;8.50;;;11.60;80.00;;;9.93;100.00;95726.41;4972367;28;20039;-67
2022/10/01 07:25:09;;;;;;;10.02;9.02;;;11.80;79.90;;;10.00;100.00;95730.69;4963258;28;20407;-67
2022/10/01 07:27:35;;;;;;;10.90;8.80;;;11.80;79.80;;;10.06;100.00;95721.22;4989713;28;20364;-71
2022/10/01 07:30:01;;;;;;;10.02;8.77;;;11.80;79.80;;;10.10;100.00;95714.56;5002466;28;20026;-69
2022/10/01 07:32:30;;;;;;;9.52;8.18;;;11.80;79.70;;;10.17;100.00;95712.78;5040791;28;20050;-69
2022/10/01 07:34:57;;;;;;;10.70;8.65;;;11.90;79.40;;;10.23;100.00;95700.72;4999293;28;20028;-70
2022/10/01 07:37:23;;;;;;;11.93;7.93;;;12.00;79.20;;;10.26;100.00;95710.84;4954108;28;20062;-70
2022/10/01 07:39:49;;;;;;;12.98;10.77;;;12.00;79.00;;;10.31;100.00;95714.50;4980553;28;20047;-70
2022/10/01 07:42:16;;;;;;;21.83;16.15;;;12.00;78.50;;;10.37;100.00;95723.41;5023950;28;20035;-70
2022/10/01 07:44:44;;;;;;;20.48;14.13;;;12.10;78.20;;;10.42;100.00;95718.38;5011359;28;22857;-67
2022/10/01 07:47:11;;;;;;;8.43;7.55;;;12.10;78.10;;;10.46;100.00;95716.16;4994147;28;20126;-71
2022/10/01 07:49:36;;;;;;;8.30;7.50;;;12.20;77.80;;;10.52;100.00;95716.19;4963584;28;20059;-70
2022/10/01 07:52:03;;;;;;;7.65;6.95;;;12.30;77.80;;;10.62;100.00;95715.78;4961468;28;21132;-69
2022/10/01 07:54:37;;;;;;;8.63;6.90;;;12.50;77.50;;;10.73;100.00;95707.34;4970681;28;20514;-69
2022/10/01 07:57:03;;;;;;;11.68;6.85;;;12.60;76.90;;;10.83;100.00;95709.56;4993518;28;20035;-68
2022/10/01 07:59:32;;;;;;;7.82;6.88;;;12.80;77.10;;;10.93;100.00;95702.13;5027979;28;20481;-70
2022/10/01 08:01:58;;;;;;;9.02;6.55;;;12.80;76.30;;;11.01;100.00;95702.72;4969233;28;20053;-69
2022/10/01 08:07:08;;;;;;;6.25;5.00;;;13.00;74.70;;;11.17;100.00;95708.63;4991531;28;20381;-69
2022/10/01 08:09:34;;;;;;;5.03;4.53;;;12.90;73.90;;;11.23;100.00;95702.53;5003635;28;20041;-70
2022/10/01 08:12:01;;;;;;;4.75;4.25;;;13.00;74.10;;;11.25;100.00;95709.22;4999259;28;20099;-70
2022/10/01 08:14:29;;;;;;;5.57;4.45;;;12.90;73.60;;;11.27;100.00;95699.28;4963792;28;20528;-70
2022/10/01 08:16:55;;;;;;;5.68;4.80;;;12.90;73.50;;;11.31;100.00;95700.50;4966179;28;20430;-71
2022/10/01 08:19:21;;;;;;;4.05;3.65;;;13.10;73.70;;;11.38;100.00;95700.50;4961412;28;20035;-67
2022/10/01 08:21:47;;;;;;;4.03;3.60;;;13.10;72.90;;;11.41;100.00;95702.72;5026977;28;20037;-68
2022/10/01 08:24:13;;;;;;;4.30;3.88;;;13.10;73.00;;;11.45;100.00;95690.78;4988551;28;20103;-69
2022/10/01 08:26:39;;;;;;;4.03;3.25;;;13.10;72.10;;;11.49;100.00;95693.81;5018023;28;20039;-68
2022/10/01 08:29:05;;;;;;;4.20;3.72;;;13.10;72.10;;;11.53;100.00;95692.38;4975291;28;20072;-68
2022/10/01 08:31:34;;;;;;;5.03;3.15;;;13.10;72.20;;;11.56;100.00;95687.53;4964624;28;20945;-67
2022/10/01 08:33:59;;;;;;;4.35;3.20;;;13.20;72.10;;;11.59;100.00;95687.13;4963578;28;20134;-67
2022/10/01 08:36:25;;;;;;;3.50;2.90;;;13.20;71.70;;;11.64;100.00;95686.50;5024244;28;20047;-67
2022/10/01 08:38:51;;;;;;;3.20;2.55;;;13.30;71.80;;;11.66;100.00;95681.84;4972451;28;20092;-67
2022/10/01 08:41:58;;;;;;;3.63;2.70;;;13.30;72.00;;;11.72;100.00;95681.00;4973025;28;20125;-66
2022/10/01 08:44:36;;;;;;;3.63;2.28;;;13.40;70.80;;;11.75;100.00;95671.88;4975194;28;20049;-68
2022/10/01 08:47:37;;;;;;;3.13;2.53;;;13.40;71.80;;;11.81;100.00;95674.53;4959870;28;20134;-66
2022/10/01 08:50:48;;;;;;;3.78;2.42;;;13.50;70.50;;;11.85;100.00;95677.56;4960060;28;20181;-67
2022/10/01 08:53:24;;;;;;;3.20;2.40;;;13.60;71.10;;;11.88;100.00;95680.59;4973473;28;20100;-67
2022/10/01 08:55:49;;;;;;;4.22;2.20;;;13.60;70.60;;;11.89;100.00;95676.94;4973967;28;20025;-66
2022/10/01 08:58:22;;;;;;;2.30;1.92;;;13.50;70.10;;;11.91;100.00;95667.00;4928276;28;20031;-66
2022/10/01 09:00:48;;;;;;;4.38;2.08;;;13.50;69.60;;;11.92;100.00;95659.91;4947714;28;20055;-66
2022/10/01 09:03:14;;;;;;;2.53;1.88;;;13.50;69.80;;;11.93;100.00;95656.25;5020775;28;20121;-67
2022/10/01 09:06:11;;;;;;;2.55;1.90;;;13.50;69.90;;;11.95;100.00;95656.84;4976915;28;20508;-66
2022/10/01 09:09:24;;;;;;;2.65;1.75;;;13.50;69.90;;;11.95;100.00;95662.94;4953601;28;20062;-72
2022/10/01 09:12:04;;;;;;;3.08;1.90;;;13.50;69.50;;;11.96;100.00;95661.91;4965162;28;20039;-68
2022/10/01 09:15:06;;;;;;;2.70;1.90;;;13.60;69.60;;;11.99;100.00;95663.31;4969805;28;20467;-70
2022/10/01 09:18:05;;;;;;;2.30;1.70;;;13.60;69.20;;;12.05;100.00;95648.53;4962573;28;20047;-66
2022/10/01 09:20:56;;;;;;;2.17;1.60;;;13.80;68.70;;;12.16;100.00;95651.28;4980412;28;20475;-65
2022/10/01 09:23:37;;;;;;;2.35;1.80;;;14.00;68.70;;;12.25;100.00;95657.97;5022094;28;20032;-70
2022/10/01 09:26:03;;;;;;;;;;;14.10;68.40;;;12.37;100.00;95654.66;4937610;28;20039;-65
2022/10/01 09:28:33;;;;;;;1.73;1.40;;;14.30;68.20;;;12.44;100.00;95658.06;4978666;28;19949;-64
2022/10/01 09:31:28;;;;;;;2.65;1.50;;;14.30;67.30;;;12.54;100.00;95658.41;4958246;28;20486;-69
2022/10/01 09:33:58;;;;;;;3.05;1.52;;;14.40;66.60;;;12.57;100.00;95652.72;4995675;28;20039;-68
2022/10/01 09:36:36;;;;;;;1.95;1.42;;;14.30;66.30;;;12.66;100.00;95661.19;5018218;28;20050;-65
2022/10/01 09:39:27;;;;;;;1.98;1.35;;;14.40;66.80;;;12.72;98.81;95669.06;4968294;28;20035;-69
2022/10/01 09:41:53;;;;;;;3.67;1.30;;;14.50;66.10;;;12.74;100.00;95666.22;4962921;28;20039;-68
2022/10/01 09:44:26;;;;;;;7.75;5.57;;;14.40;64.90;;;12.77;99.00;95663.97;4973193;28;20039;-68
2022/10/01 09:46:54;;;;;;;3.85;1.73;;;14.50;66.00;;;12.79;100.00;95672.47;4984320;28;20039;-68
2022/10/01 09:49:34;;;;;;;3.47;1.42;;;14.40;66.80;;;12.78;98.82;95673.50;4966914;28;20113;-68
2022/10/01 09:52:18;;;;;;;1.98;1.23;;;14.40;66.70;;;12.73;98.60;95665.41;4951200;28;20082;-68
2022/10/01 09:55:16;;;;;;;5.00;1.35;;;14.20;67.50;;;12.68;100.00;95670.53;4976208;28;20032;-68
2022/10/01 09:58:23;;;;;;;1.88;1.30;;;14.20;68.90;;;12.65;100.00;95670.94;4994015;28;20072;-68
2022/10/01 10:00:52;;;;;;;3.72;1.27;;;14.10;69.70;;;12.57;100.00;95671.19;5014387;28;20033;-69
2022/10/01 10:03:29;;;;;;;2.53;1.60;;;14.10;68.60;;;12.54;100.00;95682.16;4964450;28;20038;-69
2022/10/01 10:05:56;;;;;;;1.90;1.40;;;14.10;69.10;;;12.48;100.00;95675.09;4969569;28;20101;-69
2022/10/01 10:08:34;;;;;;;4.05;2.60;;;14.00;70.90;;;12.48;100.00;95677.75;4995585;28;20039;-69
2022/10/01 10:11:04;;;;;;;4.47;3.65;;;14.00;70.30;;;12.46;100.00;95677.16;4993076;28;20529;-68
2022/10/01 10:13:40;;;;;;;9.77;8.10;;;14.10;71.10;;;12.43;100.00;95693.38;5007840;28;20403;-69
2022/10/01 10:16:15;;;;;;;15.43;10.52;;;14.00;71.00;;;12.42;100.00;95682.00;4965459;28;20115;-66
2022/10/01 10:18:41;;;;;;;8.65;7.45;;;14.10;71.60;;;12.38;100.00;95683.44;4949393;28;20039;-69
2022/10/01 10:21:20;;;;;;;8.18;6.05;;;13.80;70.20;;;12.37;100.00;95683.66;4975446;28;20043;-69
2022/10/01 10:23:51;;;;;;;7.47;3.55;;;13.90;71.70;;;12.35;100.00;95690.97;5009858;28;20036;-69
2022/10/01 10:26:32;;;;;;;2.60;2.10;;;13.90;72.10;;;12.30;100.00;95688.16;5005672;28;20046;-70
2022/10/01 10:29:01;;;;;;;3.20;2.00;;;13.80;72.40;;;12.23;100.00;95690.84;4969154;28;20109;-69